sensor_id;sensor_type;location;lat;lon;timestamp;pressure;altitude;pressure_sealevel;temperature;humidity
20630;BME280;17386;43.846;25.950;2023-02-22T00:00:58;101025.19;;;11.27;75.62
20630;BME280;17386;43.846;25.950;2023-02-22T00:03:29;101025.94;;;11.30;75.57
20630;BME280;17386;43.846;25.950;2023-02-22T00:05:58;101034.97;;;11.24;75.66
20630;BME280;17386;43.846;25.950;2023-02-22T00:08:30;101035.69;;;11.30;75.64
20630;BME280;17386;43.846;25.950;2023-02-22T00:11:00;101036.84;;;11.22;75.63
20630;BME280;17386;43.846;25.950;2023-02-22T00:13:26;101028.09;;;11.19;75.99
20630;BME280;17386;43.846;25.950;2023-02-22T00:15:55;101041.47;;;11.16;76.06
20630;BME280;17386;43.846;25.950;2023-02-22T00:18:21;101043.16;;;11.18;75.85
20630;BME280;17386;43.846;25.950;2023-02-22T00:20:47;101038.97;;;11.11;76.11
20630;BME280;17386;43.846;25.950;2023-02-22T00:23:18;101052.25;;;11.11;76.08
20630;BME280;17386;43.846;25.950;2023-02-22T00:25:45;101035.75;;;11.02;76.55
20630;BME280;17386;43.846;25.950;2023-02-22T00:28:11;101055.16;;;11.05;76.38
20630;BME280;17386;43.846;25.950;2023-02-22T00:30:37;101049.72;;;11.08;76.37
20630;BME280;17386;43.846;25.950;2023-02-22T00:33:02;101054.50;;;10.97;76.70
20630;BME280;17386;43.846;25.950;2023-02-22T00:35:29;101048.44;;;10.93;77.05
20630;BME280;17386;43.846;25.950;2023-02-22T00:37:57;101047.56;;;10.93;77.21
20630;BME280;17386;43.846;25.950;2023-02-22T00:40:25;101044.78;;;10.96;77.05
20630;BME280;17386;43.846;25.950;2023-02-22T00:42:51;101045.72;;;10.95;77.15
20630;BME280;17386;43.846;25.950;2023-02-22T00:45:20;101044.84;;;10.94;77.16
20630;BME280;17386;43.846;25.950;2023-02-22T00:47:47;101036.09;;;10.91;77.33
20630;BME280;17386;43.846;25.950;2023-02-22T00:50:13;101041.31;;;10.94;77.21
20630;BME280;17386;43.846;25.950;2023-02-22T00:52:39;101043.94;;;10.95;76.87
20630;BME280;17386;43.846;25.950;2023-02-22T00:55:07;101041.31;;;10.94;77.09
20630;BME280;17386;43.846;25.950;2023-02-22T00:57:33;101047.81;;;10.85;77.30
20630;BME280;17386;43.846;25.950;2023-02-22T01:00:00;101037.88;;;10.90;76.98
20630;BME280;17386;43.846;25.950;2023-02-22T01:02:37;101039.31;;;10.74;77.45
20630;BME280;17386;43.846;25.950;2023-02-22T01:05:04;101042.69;;;10.79;77.38
20630;BME280;17386;43.846;25.950;2023-02-22T01:07:29;101038.31;;;10.78;76.97
20630;BME280;17386;43.846;25.950;2023-02-22T01:09:55;101034.66;;;10.81;76.87
20630;BME280;17386;43.846;25.950;2023-02-22T01:12:20;101037.44;;;10.78;76.74
20630;BME280;17386;43.846;25.950;2023-02-22T01:14:47;101037.38;;;10.79;76.80
20630;BME280;17386;43.846;25.950;2023-02-22T01:17:12;101028.56;;;10.77;76.67
20630;BME280;17386;43.846;25.950;2023-02-22T01:19:37;101034.00;;;10.74;76.57
20630;BME280;17386;43.846;25.950;2023-02-22T01:22:07;101045.44;;;10.76;76.41
20630;BME280;17386;43.846;25.950;2023-02-22T01:24:32;101045.41;;;10.78;76.31
20630;BME280;17386;43.846;25.950;2023-02-22T01:26:57;101038.31;;;10.78;76.18
20630;BME280;17386;43.846;25.950;2023-02-22T01:29:23;101026.81;;;10.76;76.32
20630;BME280;17386;43.846;25.950;2023-02-22T01:31:53;101025.97;;;10.76;76.38
20630;BME280;17386;43.846;25.950;2023-02-22T01:34:20;101040.97;;;10.78;75.90
20630;BME280;17386;43.846;25.950;2023-02-22T01:36:46;101032.06;;;10.79;76.00
20630;BME280;17386;43.846;25.950;2023-02-22T01:39:12;101038.44;;;10.74;76.18
20630;BME280;17386;43.846;25.950;2023-02-22T01:41:37;101030.41;;;10.75;76.04
20630;BME280;17386;43.846;25.950;2023-02-22T01:46:49;101038.81;;;10.61;76.42
20630;BME280;17386;43.846;25.950;2023-02-22T01:49:14;101036.16;;;10.61;76.12
20630;BME280;17386;43.846;25.950;2023-02-22T01:51:44;101037.88;;;10.64;75.75
20630;BME280;17386;43.846;25.950;2023-02-22T01:54:27;101042.44;;;10.59;75.87
20630;BME280;17386;43.846;25.950;2023-02-22T01:57:11;101044.31;;;10.55;76.26
20630;BME280;17386;43.846;25.950;2023-02-22T01:59:42;101041.66;;;10.55;75.97
20630;BME280;17386;43.846;25.950;2023-02-22T02:02:09;101047.84;;;10.56;75.82
20630;BME280;17386;43.846;25.950;2023-02-22T02:04:35;101044.47;;;10.51;75.79
20630;BME280;17386;43.846;25.950;2023-02-22T02:07:04;101048.06;;;10.48;75.38
20630;BME280;17386;43.846;25.950;2023-02-22T02:12:07;101042.19;;;10.38;75.72
20630;BME280;17386;43.846;25.950;2023-02-22T02:14:35;101038.41;;;10.46;75.32
20630;BME280;17386;43.846;25.950;2023-02-22T02:17:05;101039.66;;;10.34;75.45
20630;BME280;17386;43.846;25.950;2023-02-22T02:19:51;101044.03;;;10.35;75.43
20630;BME280;17386;43.846;25.950;2023-02-22T02:38:53;101051.78;;;10.43;74.73
20630;BME280;17386;43.846;25.950;2023-02-22T02:41:26;101045.53;;;10.45;74.47
20630;BME280;17386;43.846;25.950;2023-02-22T02:43:59;101045.66;;;10.40;74.49
20630;BME280;17386;43.846;25.950;2023-02-22T02:46:31;101051.56;;;10.50;74.11
20630;BME280;17386;43.846;25.950;2023-02-22T02:49:11;101043.59;;;10.50;73.92
20630;BME280;17386;43.846;25.950;2023-02-22T02:51:40;101053.38;;;10.48;74.36
20630;BME280;17386;43.846;25.950;2023-02-22T02:54:09;101038.38;;;10.47;74.05
20630;BME280;17386;43.846;25.950;2023-02-22T02:56:35;101041.75;;;10.52;73.85
20630;BME280;17386;43.846;25.950;2023-02-22T02:59:01;101051.56;;;10.50;73.89
20630;BME280;17386;43.846;25.950;2023-02-22T03:15:07;101062.00;;;10.27;74.85
20630;BME280;17386;43.846;25.950;2023-02-22T03:17:47;101067.31;;;10.27;75.15
20630;BME280;17386;43.846;25.950;2023-02-22T03:23:22;101070.59;;;10.35;74.76
20630;BME280;17386;43.846;25.950;2023-02-22T03:26:02;101068.88;;;10.34;74.75
20630;BME280;17386;43.846;25.950;2023-02-22T03:28:29;101065.28;;;10.35;74.74
20630;BME280;17386;43.846;25.950;2023-02-22T03:30:59;101077.00;;;10.28;75.42
20630;BME280;17386;43.846;25.950;2023-02-22T03:33:31;101075.38;;;10.24;75.79
20630;BME280;17386;43.846;25.950;2023-02-22T03:36:02;101077.06;;;10.26;76.07
20630;BME280;17386;43.846;25.950;2023-02-22T03:38:32;101073.53;;;10.26;76.07
20630;BME280;17386;43.846;25.950;2023-02-22T03:41:01;101070.94;;;10.24;76.24
20630;BME280;17386;43.846;25.950;2023-02-22T03:43:33;101065.84;;;10.15;76.57
20630;BME280;17386;43.846;25.950;2023-02-22T03:46:01;101073.94;;;10.10;76.80
20630;BME280;17386;43.846;25.950;2023-02-22T03:51:06;101081.75;;;10.15;76.75
20630;BME280;17386;43.846;25.950;2023-02-22T03:53:33;101080.13;;;10.11;76.98
20630;BME280;17386;43.846;25.950;2023-02-22T03:56:01;101086.34;;;10.10;77.22
20630;BME280;17386;43.846;25.950;2023-02-22T03:58:30;101088.13;;;10.09;77.04
20630;BME280;17386;43.846;25.950;2023-02-22T04:00:58;101085.50;;;10.08;77.29
20630;BME280;17386;43.846;25.950;2023-02-22T04:03:24;101095.53;;;9.98;77.84
20630;BME280;17386;43.846;25.950;2023-02-22T04:05:49;101093.03;;;9.92;78.31
20630;BME280;17386;43.846;25.950;2023-02-22T04:08:15;101089.59;;;9.89;78.56
20630;BME280;17386;43.846;25.950;2023-02-22T04:10:41;101094.19;;;9.82;79.01
20630;BME280;17386;43.846;25.950;2023-02-22T04:13:07;101095.44;;;9.67;79.62
20630;BME280;17386;43.846;25.950;2023-02-22T04:15:33;101094.38;;;9.74;79.51
20630;BME280;17386;43.846;25.950;2023-02-22T04:17:58;101096.16;;;9.75;79.51
20630;BME280;17386;43.846;25.950;2023-02-22T04:20:24;101091.88;;;9.70;79.84
20630;BME280;17386;43.846;25.950;2023-02-22T04:22:53;101091.78;;;9.73;79.64
20630;BME280;17386;43.846;25.950;2023-02-22T04:25:20;101097.94;;;9.75;79.64
20630;BME280;17386;43.846;25.950;2023-02-22T04:27:46;101092.75;;;9.70;79.83
20630;BME280;17386;43.846;25.950;2023-02-22T04:30:11;101096.34;;;9.68;80.06
20630;BME280;17386;43.846;25.950;2023-02-22T04:32:37;101084.88;;;9.66;80.35
20630;BME280;17386;43.846;25.950;2023-02-22T04:35:04;101090.25;;;9.64;80.54
20630;BME280;17386;43.846;25.950;2023-02-22T04:37:29;101085.91;;;9.62;80.42
20630;BME280;17386;43.846;25.950;2023-02-22T04:39:55;101096.16;;;9.74;80.25
20630;BME280;17386;43.846;25.950;2023-02-22T04:42:20;101089.97;;;9.75;79.98
20630;BME280;17386;43.846;25.950;2023-02-22T04:44:46;101090.09;;;9.70;80.42
20630;BME280;17386;43.846;25.950;2023-02-22T04:47:11;101097.19;;;9.70;80.38
20630;BME280;17386;43.846;25.950;2023-02-22T04:49:37;101097.28;;;9.65;81.00
20630;BME280;17386;43.846;25.950;2023-02-22T04:52:02;101099.16;;;9.62;81.25
20630;BME280;17386;43.846;25.950;2023-02-22T04:54:27;101096.56;;;9.58;81.68
20630;BME280;17386;43.846;25.950;2023-02-22T04:56:53;101097.28;;;9.65;81.52
20630;BME280;17386;43.846;25.950;2023-02-22T04:59:18;101105.41;;;9.59;82.04
20630;BME280;17386;43.846;25.950;2023-02-22T05:01:44;101106.16;;;9.64;81.85
20630;BME280;17386;43.846;25.950;2023-02-22T05:04:10;101107.84;;;9.67;81.60
20630;BME280;17386;43.846;25.950;2023-02-22T05:06:35;101107.69;;;9.73;81.35
20630;BME280;17386;43.846;25.950;2023-02-22T05:09:01;101112.03;;;9.77;80.98
20630;BME280;17386;43.846;25.950;2023-02-22T05:11:27;101109.56;;;9.69;81.27
20630;BME280;17386;43.846;25.950;2023-02-22T05:13:53;101115.75;;;9.70;81.11
20630;BME280;17386;43.846;25.950;2023-02-22T05:16:18;101112.94;;;9.74;81.07
20630;BME280;17386;43.846;25.950;2023-02-22T05:18:43;101112.09;;;9.74;81.03
20630;BME280;17386;43.846;25.950;2023-02-22T05:21:09;101112.94;;;9.76;80.82
20630;BME280;17386;43.846;25.950;2023-02-22T05:23:34;101114.78;;;9.72;80.76
20630;BME280;17386;43.846;25.950;2023-02-22T05:26:00;101117.31;;;9.77;81.34
20630;BME280;17386;43.846;25.950;2023-02-22T05:28:26;101122.53;;;9.80;80.61
20630;BME280;17386;43.846;25.950;2023-02-22T05:30:52;101124.47;;;9.75;80.61
20630;BME280;17386;43.846;25.950;2023-02-22T05:33:17;101116.31;;;9.82;80.36
20630;BME280;17386;43.846;25.950;2023-02-22T05:35:43;101118.00;;;9.85;80.12
20630;BME280;17386;43.846;25.950;2023-02-22T05:38:09;101118.00;;;9.85;80.05
20630;BME280;17386;43.846;25.950;2023-02-22T05:40:36;101126.00;;;9.83;80.09
20630;BME280;17386;43.846;25.950;2023-02-22T05:43:02;101125.28;;;9.77;80.46
20630;BME280;17386;43.846;25.950;2023-02-22T05:45:28;101133.09;;;9.83;80.51
20630;BME280;17386;43.846;25.950;2023-02-22T05:47:54;101137.44;;;9.85;80.44
20630;BME280;17386;43.846;25.950;2023-02-22T05:50:20;101142.59;;;9.92;80.34
20630;BME280;17386;43.846;25.950;2023-02-22T05:52:46;101140.72;;;9.95;80.21
20630;BME280;17386;43.846;25.950;2023-02-22T05:55:18;101137.06;;;9.99;80.00
20630;BME280;17386;43.846;25.950;2023-02-22T05:57:44;101143.03;;;10.07;80.06
20630;BME280;17386;43.846;25.950;2023-02-22T06:00:25;101141.13;;;10.12;79.91
20630;BME280;17386;43.846;25.950;2023-02-22T06:03:01;101142.81;;;10.17;79.76
20630;BME280;17386;43.846;25.950;2023-02-22T06:05:28;101155.00;;;10.22;80.00
20630;BME280;17386;43.846;25.950;2023-02-22T06:07:54;101153.06;;;10.30;79.74
20630;BME280;17386;43.846;25.950;2023-02-22T06:10:20;101167.28;;;10.28;79.72
20630;BME280;17386;43.846;25.950;2023-02-22T06:12:47;101165.25;;;10.37;79.49
20630;BME280;17386;43.846;25.950;2023-02-22T06:15:14;101172.19;;;10.43;79.11
20630;BME280;17386;43.846;25.950;2023-02-22T06:17:40;101177.31;;;10.49;78.77
20630;BME280;17386;43.846;25.950;2023-02-22T06:20:08;101172.44;;;10.65;78.25
20630;BME280;17386;43.846;25.950;2023-02-22T06:22:33;101176.91;;;10.63;77.96
20630;BME280;17386;43.846;25.950;2023-02-22T06:25:01;101169.88;;;10.62;78.27
20630;BME280;17386;43.846;25.950;2023-02-22T06:27:30;101188.34;;;10.66;77.92
20630;BME280;17386;43.846;25.950;2023-02-22T06:29:57;101190.19;;;10.64;78.18
20630;BME280;17386;43.846;25.950;2023-02-22T06:32:22;101193.56;;;10.69;78.23
20630;BME280;17386;43.846;25.950;2023-02-22T06:34:48;101187.81;;;10.85;77.66
20630;BME280;17386;43.846;25.950;2023-02-22T06:37:13;101189.59;;;10.84;77.57
20630;BME280;17386;43.846;25.950;2023-02-22T06:39:38;101189.38;;;10.90;77.53
20630;BME280;17386;43.846;25.950;2023-02-22T06:42:04;101190.31;;;10.89;77.64
20630;BME280;17386;43.846;25.950;2023-02-22T06:44:29;101188.97;;;11.04;77.71
20630;BME280;17386;43.846;25.950;2023-02-22T06:46:55;101186.41;;;11.01;77.09
20630;BME280;17386;43.846;25.950;2023-02-22T06:49:20;101194.78;;;11.17;76.76
20630;BME280;17386;43.846;25.950;2023-02-22T06:51:47;101192.97;;;11.19;76.35
20630;BME280;17386;43.846;25.950;2023-02-22T06:54:13;101197.13;;;11.28;76.62
20630;BME280;17386;43.846;25.950;2023-02-22T06:56:38;101201.22;;;11.39;76.02
20630;BME280;17386;43.846;25.950;2023-02-22T06:59:04;101196.75;;;11.40;75.98
20630;BME280;17386;43.846;25.950;2023-02-22T07:01:29;101191.38;;;11.41;76.75
20630;BME280;17386;43.846;25.950;2023-02-22T07:03:55;101196.19;;;11.57;75.73
20630;BME280;17386;43.846;25.950;2023-02-22T07:06:20;101193.28;;;11.64;75.11
20630;BME280;17386;43.846;25.950;2023-02-22T07:08:47;101194.53;;;11.52;75.70
20630;BME280;17386;43.846;25.950;2023-02-22T07:11:12;101199.84;;;11.54;76.63
20630;BME280;17386;43.846;25.950;2023-02-22T07:13:38;101203.38;;;11.55;76.29
20630;BME280;17386;43.846;25.950;2023-02-22T07:16:04;101198.00;;;11.56;76.84
20630;BME280;17386;43.846;25.950;2023-02-22T07:18:29;101209.84;;;11.74;76.40
20630;BME280;17386;43.846;25.950;2023-02-22T07:20:54;101195.44;;;11.79;76.24
20630;BME280;17386;43.846;25.950;2023-02-22T07:23:20;101199.63;;;11.88;76.24
20630;BME280;17386;43.846;25.950;2023-02-22T07:25:45;101205.41;;;12.01;75.77
20630;BME280;17386;43.846;25.950;2023-02-22T07:28:11;101205.91;;;12.12;75.12
20630;BME280;17386;43.846;25.950;2023-02-22T07:30:39;101215.03;;;12.05;75.47
20630;BME280;17386;43.846;25.950;2023-02-22T07:33:09;101207.44;;;11.93;75.95
20630;BME280;17386;43.846;25.950;2023-02-22T07:35:43;101193.19;;;11.94;76.62
20630;BME280;17386;43.846;25.950;2023-02-22T07:38:12;101200.63;;;11.84;77.52
20630;BME280;17386;43.846;25.950;2023-02-22T07:40:38;101204.03;;;11.89;77.85
20630;BME280;17386;43.846;25.950;2023-02-22T07:43:12;101206.84;;;11.85;78.37
20630;BME280;17386;43.846;25.950;2023-02-22T07:45:38;101201.84;;;12.00;78.38
20630;BME280;17386;43.846;25.950;2023-02-22T07:48:04;101198.50;;;12.20;77.72
20630;BME280;17386;43.846;25.950;2023-02-22T07:50:32;101196.94;;;12.40;77.30
20630;BME280;17386;43.846;25.950;2023-02-22T07:53:01;101199.16;;;12.52;76.97
20630;BME280;17386;43.846;25.950;2023-02-22T07:55:28;101192.31;;;12.68;76.45
20630;BME280;17386;43.846;25.950;2023-02-22T07:57:57;101200.91;;;12.76;76.38
20630;BME280;17386;43.846;25.950;2023-02-22T08:00:25;101199.22;;;12.74;76.58
20630;BME280;17386;43.846;25.950;2023-02-22T08:02:51;101200.81;;;12.79;77.05
20630;BME280;17386;43.846;25.950;2023-02-22T08:05:18;101196.69;;;12.94;76.31
20630;BME280;17386;43.846;25.950;2023-02-22T08:07:43;101200.91;;;13.00;76.41
20630;BME280;17386;43.846;25.950;2023-02-22T08:10:09;101198.88;;;13.06;76.52
20630;BME280;17386;43.846;25.950;2023-02-22T08:12:36;101201.38;;;13.11;75.09
20630;BME280;17386;43.846;25.950;2023-02-22T08:15:03;101203.34;;;13.06;75.52
20630;BME280;17386;43.846;25.950;2023-02-22T08:17:29;101206.47;;;13.17;74.77
20630;BME280;17386;43.846;25.950;2023-02-22T08:19:54;101197.28;;;13.26;74.67
20630;BME280;17386;43.846;25.950;2023-02-22T08:22:20;101204.91;;;13.35;74.03
20630;BME280;17386;43.846;25.950;2023-02-22T08:24:45;101192.19;;;13.41;73.83
20630;BME280;17386;43.846;25.950;2023-02-22T08:27:11;101199.88;;;13.49;73.67
20630;BME280;17386;43.846;25.950;2023-02-22T08:29:36;101205.28;;;13.69;72.85
20630;BME280;17386;43.846;25.950;2023-02-22T08:32:02;101206.44;;;13.84;71.96
20630;BME280;17386;43.846;25.950;2023-02-22T08:34:27;101204.59;;;13.86;71.55
20630;BME280;17386;43.846;25.950;2023-02-22T08:36:53;101200.22;;;13.84;71.79
20630;BME280;17386;43.846;25.950;2023-02-22T08:39:19;101206.75;;;13.77;72.83
20630;BME280;17386;43.846;25.950;2023-02-22T08:41:44;101197.06;;;13.96;71.80
20630;BME280;17386;43.846;25.950;2023-02-22T08:44:10;101202.69;;;14.10;71.06
20630;BME280;17386;43.846;25.950;2023-02-22T08:46:35;101202.84;;;14.06;71.05
20630;BME280;17386;43.846;25.950;2023-02-22T08:49:01;101198.09;;;14.14;70.68
20630;BME280;17386;43.846;25.950;2023-02-22T08:51:27;101193.13;;;14.25;70.25
20630;BME280;17386;43.846;25.950;2023-02-22T08:53:53;101190.84;;;14.36;69.73
20630;BME280;17386;43.846;25.950;2023-02-22T08:56:19;101196.81;;;14.43;69.21
20630;BME280;17386;43.846;25.950;2023-02-22T08:58:44;101195.69;;;14.48;69.13
20630;BME280;17386;43.846;25.950;2023-02-22T09:01:10;101196.06;;;14.60;68.66
20630;BME280;17386;43.846;25.950;2023-02-22T09:03:35;101196.41;;;14.91;67.94
20630;BME280;17386;43.846;25.950;2023-02-22T09:06:03;101195.97;;;15.19;66.45
20630;BME280;17386;43.846;25.950;2023-02-22T09:08:28;101192.47;;;15.74;64.94
20630;BME280;17386;43.846;25.950;2023-02-22T09:10:53;101198.25;;;16.01;62.95
20630;BME280;17386;43.846;25.950;2023-02-22T09:13:19;101187.09;;;15.91;62.81
20630;BME280;17386;43.846;25.950;2023-02-22T09:15:44;101189.81;;;16.08;61.49
20630;BME280;17386;43.846;25.950;2023-02-22T09:18:11;101189.22;;;15.84;62.53
20630;BME280;17386;43.846;25.950;2023-02-22T09:20:39;101198.38;;;15.98;62.08
20630;BME280;17386;43.846;25.950;2023-02-22T09:23:05;101191.84;;;16.21;61.05
20630;BME280;17386;43.846;25.950;2023-02-22T09:25:31;101194.13;;;15.94;60.82
20630;BME280;17386;43.846;25.950;2023-02-22T09:27:59;101196.25;;;16.04;61.40
20630;BME280;17386;43.846;25.950;2023-02-22T09:30:29;101192.56;;;16.07;60.43
20630;BME280;17386;43.846;25.950;2023-02-22T09:32:58;101196.34;;;16.20;59.05
20630;BME280;17386;43.846;25.950;2023-02-22T09:35:25;101184.56;;;16.40;58.54
20630;BME280;17386;43.846;25.950;2023-02-22T09:37:58;101187.47;;;16.70;57.82
20630;BME280;17386;43.846;25.950;2023-02-22T09:40:27;101191.81;;;16.55;57.68
20630;BME280;17386;43.846;25.950;2023-02-22T09:48:44;101192.66;;;16.73;57.29
20630;BME280;17386;43.846;25.950;2023-02-22T09:51:16;101186.09;;;16.79;56.13
20630;BME280;17386;43.846;25.950;2023-02-22T09:53:44;101187.69;;;16.99;55.02
20630;BME280;17386;43.846;25.950;2023-02-22T09:56:13;101189.25;;;17.03;54.49
20630;BME280;17386;43.846;25.950;2023-02-22T09:58:42;101167.25;;;17.12;54.84
20630;BME280;17386;43.846;25.950;2023-02-22T10:01:15;101183.34;;;17.59;53.48
20630;BME280;17386;43.846;25.950;2023-02-22T10:04:20;101188.81;;;18.03;52.45
20630;BME280;17386;43.846;25.950;2023-02-22T10:07:13;101193.94;;;18.08;51.42
20630;BME280;17386;43.846;25.950;2023-02-22T10:09:44;101189.00;;;18.45;51.14
20630;BME280;17386;43.846;25.950;2023-02-22T10:12:22;101184.84;;;18.98;49.71
20630;BME280;17386;43.846;25.950;2023-02-22T10:15:21;101184.16;;;20.16;46.77
20630;BME280;17386;43.846;25.950;2023-02-22T10:26:28;101165.47;;;21.15;43.09
20630;BME280;17386;43.846;25.950;2023-02-22T10:29:07;101167.97;;;21.55;42.26
20630;BME280;17386;43.846;25.950;2023-02-22T10:31:38;101161.69;;;22.14;41.44
20630;BME280;17386;43.846;25.950;2023-02-22T10:34:20;101160.03;;;22.46;40.08
20630;BME280;17386;43.846;25.950;2023-02-22T10:36:54;101154.59;;;21.65;41.77
20630;BME280;17386;43.846;25.950;2023-02-22T10:39:31;101151.22;;;21.50;42.70
20630;BME280;17386;43.846;25.950;2023-02-22T10:42:03;101136.81;;;21.73;42.03
20630;BME280;17386;43.846;25.950;2023-02-22T10:44:33;101150.69;;;21.69;41.86
20630;BME280;17386;43.846;25.950;2023-02-22T10:47:00;101135.81;;;21.74;40.94
20630;BME280;17386;43.846;25.950;2023-02-22T10:49:33;101134.34;;;21.70;41.69
20630;BME280;17386;43.846;25.950;2023-02-22T10:52:03;101134.69;;;21.66;40.77
20630;BME280;17386;43.846;25.950;2023-02-22T10:54:40;101131.81;;;21.32;41.63
20630;BME280;17386;43.846;25.950;2023-02-22T10:57:06;101127.22;;;21.69;41.05
20630;BME280;17386;43.846;25.950;2023-02-22T10:59:35;101128.03;;;21.35;41.53
20630;BME280;17386;43.846;25.950;2023-02-22T11:02:18;101125.31;;;21.94;40.42
20630;BME280;17386;43.846;25.950;2023-02-22T11:04:55;101124.59;;;21.92;40.11
20630;BME280;17386;43.846;25.950;2023-02-22T11:10:12;101116.56;;;21.79;40.50
20630;BME280;17386;43.846;25.950;2023-02-22T11:12:41;101126.16;;;21.83;39.91
20630;BME280;17386;43.846;25.950;2023-02-22T11:17:41;101113.91;;;22.01;39.72
20630;BME280;17386;43.846;25.950;2023-02-22T11:20:23;101113.00;;;21.78;39.95
20630;BME280;17386;43.846;25.950;2023-02-22T11:22:53;101108.38;;;22.03;39.24
20630;BME280;17386;43.846;25.950;2023-02-22T11:25:23;101112.38;;;22.21;39.25
20630;BME280;17386;43.846;25.950;2023-02-22T11:27:50;101108.88;;;22.08;39.50
20630;BME280;17386;43.846;25.950;2023-02-22T11:30:29;101110.06;;;22.17;39.84
20630;BME280;17386;43.846;25.950;2023-02-22T11:35:55;101102.31;;;21.53;40.70
20630;BME280;17386;43.846;25.950;2023-02-22T11:38:31;101108.06;;;20.88;41.53
20630;BME280;17386;43.846;25.950;2023-02-22T11:41:20;101108.28;;;21.21;41.35
20630;BME280;17386;43.846;25.950;2023-02-22T11:43:50;101093.97;;;22.02;39.52
20630;BME280;17386;43.846;25.950;2023-02-22T11:49:06;101102.41;;;22.10;37.24
20630;BME280;17386;43.846;25.950;2023-02-22T11:51:37;101100.66;;;21.63;38.99
20630;BME280;17386;43.846;25.950;2023-02-22T12:07:47;101096.75;;;21.78;37.90
20630;BME280;17386;43.846;25.950;2023-02-22T12:18:42;101087.00;;;21.41;39.56
20630;BME280;17386;43.846;25.950;2023-02-22T12:21:16;101086.88;;;21.66;38.74
20630;BME280;17386;43.846;25.950;2023-02-22T12:23:48;101095.34;;;21.62;39.02
20630;BME280;17386;43.846;25.950;2023-02-22T12:26:41;101087.69;;;21.08;39.96
20630;BME280;17386;43.846;25.950;2023-02-22T12:29:30;101085.22;;;20.68;40.88
20630;BME280;17386;43.846;25.950;2023-02-22T12:40:23;101096.22;;;18.80;43.77
20630;BME280;17386;43.846;25.950;2023-02-22T12:45:31;101085.81;;;18.31;45.35
20630;BME280;17386;43.846;25.950;2023-02-22T12:48:22;101090.53;;;18.14;45.69
20630;BME280;17386;43.846;25.950;2023-02-22T12:50:54;101087.91;;;17.98;46.23
20630;BME280;17386;43.846;25.950;2023-02-22T12:53:28;101071.69;;;17.69;46.56
20630;BME280;17386;43.846;25.950;2023-02-22T12:56:27;101092.22;;;17.86;46.49
20630;BME280;17386;43.846;25.950;2023-02-22T12:58:59;101085.13;;;17.69;47.25
20630;BME280;17386;43.846;25.950;2023-02-22T13:01:51;101086.81;;;17.72;47.72
20630;BME280;17386;43.846;25.950;2023-02-22T13:04:18;101083.59;;;17.65;47.91
20630;BME280;17386;43.846;25.950;2023-02-22T13:07:04;101083.06;;;17.74;48.18
20630;BME280;17386;43.846;25.950;2023-02-22T13:12:37;101091.81;;;17.62;48.52
20630;BME280;17386;43.846;25.950;2023-02-22T13:15:22;101090.88;;;17.63;48.36
20630;BME280;17386;43.846;25.950;2023-02-22T13:18:11;101092.69;;;17.63;48.20
20630;BME280;17386;43.846;25.950;2023-02-22T13:21:08;101083.25;;;17.56;48.68
20630;BME280;17386;43.846;25.950;2023-02-22T13:26:42;101092.47;;;17.52;49.03
20630;BME280;17386;43.846;25.950;2023-02-22T13:32:12;101090.97;;;17.32;49.24
20630;BME280;17386;43.846;25.950;2023-02-22T13:51:42;101091.34;;;17.10;50.25
20630;BME280;17386;43.846;25.950;2023-02-22T13:56:58;101097.28;;;16.99;50.45
20630;BME280;17386;43.846;25.950;2023-02-22T13:59:33;101101.03;;;16.97;50.91
20630;BME280;17386;43.846;25.950;2023-02-22T14:02:00;101099.81;;;17.02;51.24
20630;BME280;17386;43.846;25.950;2023-02-22T14:07:01;101104.50;;;16.99;51.94
20630;BME280;17386;43.846;25.950;2023-02-22T14:09:51;101095.81;;;16.93;52.15
20630;BME280;17386;43.846;25.950;2023-02-22T14:20:25;101099.31;;;16.95;52.58
20630;BME280;17386;43.846;25.950;2023-02-22T14:22:57;101102.59;;;16.85;53.20
20630;BME280;17386;43.846;25.950;2023-02-22T14:25:42;101101.81;;;16.83;53.27
20630;BME280;17386;43.846;25.950;2023-02-22T14:28:38;101109.66;;;16.86;53.35
20630;BME280;17386;43.846;25.950;2023-02-22T14:31:16;101103.88;;;16.78;52.99
20630;BME280;17386;43.846;25.950;2023-02-22T14:36:28;101108.28;;;16.79;54.26
20630;BME280;17386;43.846;25.950;2023-02-22T14:39:02;101112.75;;;16.62;54.67
20630;BME280;17386;43.846;25.950;2023-02-22T14:41:31;101106.31;;;16.49;55.26
20630;BME280;17386;43.846;25.950;2023-02-22T14:43:58;101101.72;;;16.51;55.41
20630;BME280;17386;43.846;25.950;2023-02-22T14:46:30;101117.66;;;16.54;55.32
20630;BME280;17386;43.846;25.950;2023-02-22T14:48:59;101113.50;;;16.49;56.14
20630;BME280;17386;43.846;25.950;2023-02-22T14:51:34;101113.06;;;16.40;56.37
20630;BME280;17386;43.846;25.950;2023-02-22T14:54:08;101115.09;;;16.35;56.99
20630;BME280;17386;43.846;25.950;2023-02-22T14:56:45;101110.44;;;16.39;57.13
20630;BME280;17386;43.846;25.950;2023-02-22T14:59:21;101107.31;;;16.31;57.31
20630;BME280;17386;43.846;25.950;2023-02-22T15:01:48;101104.94;;;16.25;57.39
20630;BME280;17386;43.846;25.950;2023-02-22T15:04:20;101118.75;;;16.17;58.13
20630;BME280;17386;43.846;25.950;2023-02-22T15:06:47;101103.09;;;16.09;57.74
20630;BME280;17386;43.846;25.950;2023-02-22T15:09:22;101105.34;;;16.17;57.60
20630;BME280;17386;43.846;25.950;2023-02-22T15:11:52;101110.25;;;16.09;57.86
20630;BME280;17386;43.846;25.950;2023-02-22T15:14:24;101111.03;;;16.11;58.18